Time;durP1;ratioP1;P1;durP2;ratioP2;P2;SDS_P1;SDS_P2;PMS_P1;PMS_P2;Temp;Humidity;BMP_temperature;BMP_pressure;BME280_temperature;BME280_humidity;BME280_pressure;Samples;Min_cycle;Max_cycle;Signal;HPM_P1;HPM_P2
2021/12/17 00:00:05;;;;;;;31.95;20.40;;;;;;;15.83;100.00;103846.47;5095026;28;20028;-52
2021/12/17 00:03:31;;;;;;;33.03;21.17;;;;;;;15.86;100.00;103840.75;5078033;28;20363;-49
2021/12/17 00:05:43;;;;;;;32.20;21.00;;;;;;;15.78;100.00;103838.81;5084414;28;20264;-54
2021/12/17 00:08:09;;;;;;;32.57;20.13;;;;;;;15.81;100.00;103853.88;5095461;28;20260;-53
2021/12/17 00:10:34;;;;;;;31.05;18.77;;;;;;;15.87;100.00;103852.41;5060527;28;20774;-53
2021/12/17 00:13:01;;;;;;;30.80;19.60;;;;;;;15.86;100.00;103846.13;5094774;28;20456;-52
2021/12/17 00:15:26;;;;;;;30.25;19.05;;;;;;;15.84;100.00;103847.31;5094936;28;20032;-53
2021/12/17 00:17:58;;;;;;;33.05;19.95;;;;;;;15.80;100.00;103841.38;5094722;28;20122;-53
2021/12/17 00:40:24;;;;;;;31.37;18.63;;;;;;;15.88;100.00;103852.25;5094715;28;20257;-51
2021/12/17 00:53:17;;;;;;;28.87;18.43;;;;;;;15.60;100.00;103846.94;5076299;28;20280;-52
2021/12/17 00:55:43;;;;;;;28.77;18.47;;;;;;;15.62;100.00;103858.44;5094065;28;20269;-51
2021/12/17 00:58:09;;;;;;;27.70;17.08;;;;;;;15.62;100.00;103861.13;5093986;28;20333;-50
2021/12/17 01:00:34;;;;;;;31.58;18.33;;;;;;;15.65;100.00;103851.88;5094177;28;20330;-50
2021/12/17 01:03:00;;;;;;;29.38;18.35;;;;;;;15.62;100.00;103839.53;5093677;28;20038;-54
2021/12/17 01:05:29;;;;;;;25.48;16.13;;;;;;;15.62;100.00;103841.41;5094268;28;20032;-52
2021/12/17 01:07:57;;;;;;;26.57;17.33;;;;;;;15.58;100.00;103845.44;5093970;28;20098;-51
2021/12/17 01:10:47;;;;;;;28.27;17.10;;;;;;;15.58;100.00;103837.34;5075659;28;20329;-54
2021/12/17 01:13:44;;;;;;;28.33;16.42;;;;;;;15.54;100.00;103833.22;5038577;28;20303;-52
2021/12/17 01:16:28;;;;;;;29.50;16.73;;;;;;;15.56;100.00;103833.91;5094142;28;20046;-54
2021/12/17 01:25:06;;;;;;;25.30;15.50;;;;;;;15.58;100.00;103831.94;5093747;28;20465;-47
2021/12/17 01:38:28;;;;;;;24.00;15.73;;;;;;;15.30;100.00;103830.19;5030527;28;20278;-48
2021/12/17 01:42:17;;;;;;;22.03;15.33;;;;;;;15.39;100.00;103832.94;5093226;28;20741;-50
2021/12/17 01:44:43;;;;;;;27.50;16.60;;;;;;;15.16;100.00;103833.38;5075939;28;20032;-51
2021/12/17 01:47:11;;;;;;;27.08;16.50;;;;;;;15.17;100.00;103841.34;5093536;28;20028;-48
2021/12/17 02:00:39;;;;;;;22.27;15.00;;;;;;;15.30;100.00;103834.69;5077987;28;20267;-52
2021/12/17 02:03:06;;;;;;;27.90;14.80;;;;;;;15.28;100.00;103845.66;5062444;28;20253;-49
2021/12/17 02:05:34;;;;;;;27.83;14.60;;;;;;;15.26;100.00;103838.72;5097446;28;20338;-49
2021/12/17 02:08:00;;;;;;;20.60;14.83;;;;;;;15.32;100.00;103849.75;5097083;28;20249;-51
2021/12/17 02:32:14;;;;;;;25.25;14.38;;;;;;;15.12;100.00;103858.97;5078732;28;20326;-48
2021/12/17 02:37:28;;;;;;;25.23;14.43;;;;;;;15.15;100.00;103864.03;5096842;28;20060;-51
2021/12/17 02:45:33;;;;;;;21.20;14.43;;;;;;;15.22;100.00;103848.94;5078116;28;20326;-53
2021/12/17 02:47:58;;;;;;;24.23;14.60;;;;;;;15.22;100.00;103848.94;5097154;28;20358;-51
2021/12/17 02:50:25;;;;;;;24.30;15.35;;;;;;;15.22;100.00;103851.63;5078896;28;20302;-51
2021/12/17 02:52:54;;;;;;;24.77;14.93;;;;;;;15.19;100.00;103850.13;5078291;28;20461;-51
2021/12/17 02:55:21;;;;;;;28.07;15.50;;;;;;;15.18;100.00;103844.88;5096486;28;20027;-50
2021/12/17 02:57:47;;;;;;;27.77;15.93;;;;;;;15.19;100.00;103850.13;5078605;28;20288;-51
2021/12/17 03:00:13;;;;;;;25.17;14.98;;;;;;;15.20;100.00;103856.34;5061477;28;20343;-48
2021/12/17 03:02:40;;;;;;;29.48;15.23;;;;;;;15.19;100.00;103849.25;5078313;28;20043;-52
2021/12/17 03:05:08;;;;;;;25.37;15.77;;;;;;;15.16;100.00;103844.16;5096166;28;20055;-50
2021/12/17 03:07:37;;;;;;;24.43;14.77;;;;;;;15.13;100.00;103836.41;5078020;28;20265;-48
2021/12/17 03:10:08;;;;;;;27.17;16.13;;;;;;;15.13;100.00;103841.78;5078039;28;20268;-51
2021/12/17 03:23:39;;;;;;;30.93;16.00;;;;;;;15.18;100.00;103836.78;5078180;28;20268;-53
2021/12/17 03:26:14;;;;;;;27.10;15.77;;;;;;;15.11;100.00;103841.09;5065346;28;20367;-53
2021/12/17 03:28:43;;;;;;;28.53;16.13;;;;;;;15.11;100.00;103841.09;5078131;28;20322;-48
2021/12/17 03:31:10;;;;;;;30.27;15.77;;;;;;;15.08;100.00;103838.72;5078310;28;20346;-48
2021/12/17 03:33:42;;;;;;;28.87;16.50;;;;;;;15.00;100.00;103828.69;5077210;28;20281;-52
2021/12/17 03:36:14;;;;;;;31.23;16.80;;;;;;;15.12;100.00;103837.41;5078089;28;20726;-48
2021/12/17 03:38:43;;;;;;;27.40;16.73;;;;;;;15.05;100.00;103832.63;5077491;28;20280;-49
2021/12/17 03:41:35;;;;;;;29.87;16.73;;;;;;;15.09;100.00;103833.16;5076916;28;20284;-48
2021/12/17 03:43:59;;;;;;;35.33;17.60;;;;;;;15.05;100.00;103829.06;5077139;28;20873;-48
2021/12/17 03:46:47;;;;;;;26.23;16.30;;;;;;;14.99;100.00;103833.25;5077445;28;20024;-52
2021/12/17 03:49:17;;;;;;;30.47;16.77;;;;;;;15.12;100.00;103834.69;5077784;28;20280;-52
2021/12/17 03:51:54;;;;;;;31.30;16.97;;;;;;;15.16;100.00;103836.09;5095197;28;20664;-52
2021/12/17 03:54:23;;;;;;;29.70;17.63;;;;;;;15.20;100.00;103834.78;5077834;28;20276;-49
2021/12/17 03:56:48;;;;;;;32.92;18.15;;;;;;;15.16;100.00;103834.25;5060529;28;20303;-50
2021/12/17 03:59:14;;;;;;;33.90;17.52;;;;;;;15.16;100.00;103833.38;5077034;28;20036;-49
2021/12/17 04:01:40;;;;;;;31.85;17.95;;;;;;;15.17;100.00;103833.25;5077850;28;20028;-51
2021/12/17 04:04:07;;;;;;;33.77;17.53;;;;;;;15.20;100.00;103837.47;5076647;28;20048;-53
2021/12/17 04:06:36;;;;;;;30.87;17.70;;;;;;;15.20;100.00;103830.25;5077414;28;20268;-50
2021/12/17 04:09:02;;;;;;;37.53;19.97;;;;;;;15.21;100.00;103828.38;5094744;28;20445;-49
2021/12/17 04:12:00;;;;;;;29.77;18.10;;;;;;;15.28;100.00;103821.41;5082714;28;20363;-52
2021/12/17 04:14:48;;;;;;;35.03;18.40;;;;;;;15.29;100.00;103836.56;5076853;28;20276;-50
2021/12/17 04:17:23;;;;;;;40.30;20.37;;;;;;;15.32;100.00;103833.56;5095901;28;20406;-50
2021/12/17 04:19:48;;;;;;;38.40;19.57;;;;;;;15.27;100.00;103843.97;5077366;28;20281;-49
2021/12/17 04:22:14;;;;;;;39.10;20.27;;;;;;;15.20;100.00;103835.63;5077376;28;20585;-52
2021/12/17 04:24:40;;;;;;;38.88;20.65;;;;;;;15.23;100.00;103836.31;5094353;28;20040;-52
2021/12/17 04:27:07;;;;;;;39.55;21.30;;;;;;;15.24;100.00;103838.88;5076262;28;20031;-50
2021/12/17 04:29:39;;;;;;;36.17;20.30;;;;;;;15.26;100.00;103836.88;5077186;28;20028;-53
2021/12/17 04:32:06;;;;;;;39.00;19.93;;;;;;;15.24;100.00;103838.88;5076373;28;20286;-51
2021/12/17 04:34:33;;;;;;;45.47;22.83;;;;;;;15.18;100.00;103847.56;5076341;28;20379;-53
2021/12/17 04:37:01;;;;;;;44.73;22.90;;;;;;;15.24;100.00;103843.41;5076316;28;20280;-52
2021/12/17 04:39:42;;;;;;;42.27;21.67;;;;;;;15.21;100.00;103847.25;5061696;28;20288;-54
2021/12/17 04:42:16;;;;;;;39.17;22.13;;;;;;;15.17;100.00;103845.88;5076283;28;20749;-51
2021/12/17 04:44:50;;;;;;;47.80;22.00;;;;;;;15.20;100.00;103846.41;5076146;28;20077;-54
2021/12/17 04:57:56;;;;;;;47.80;22.90;;;;;;;15.17;100.00;103840.47;5075990;28;20040;-49
2021/12/17 05:00:26;;;;;;;49.43;22.80;;;;;;;15.23;100.00;103841.72;5094134;28;20259;-52
2021/12/17 05:03:21;;;;;;;47.30;23.03;;;;;;;15.25;100.00;103840.56;5084157;28;20265;-53
2021/12/17 05:05:49;;;;;;;58.77;24.80;;;;;;;15.27;100.00;103843.97;5075656;28;20317;-51
2021/12/17 05:08:23;;;;;;;64.70;25.53;;;;;;;15.29;100.00;103844.66;5060330;28;20571;-50
2021/12/17 05:18:56;;;;;;;56.13;25.57;;;;;;;15.26;100.00;103839.56;5094210;28;20285;-50
2021/12/17 05:21:23;;;;;;;54.47;24.90;;;;;;;15.34;100.00;103842.34;5075917;28;20284;-53
2021/12/17 05:23:51;;;;;;;63.60;27.40;;;;;;;15.45;100.00;103837.69;5075870;28;20268;-53
2021/12/17 05:26:19;;;;;;;59.77;25.10;;;;;;;15.30;100.00;103846.34;5075811;28;20284;-51
2021/12/17 05:28:49;;;;;;;63.50;25.13;;;;;;;15.39;100.00;103854.50;5076057;28;20597;-55
2021/12/17 05:31:16;;;;;;;55.47;24.17;;;;;;;15.34;100.00;103850.44;5076017;28;20644;-52
2021/12/17 05:33:52;;;;;;;54.10;22.87;;;;;;;15.29;100.00;103855.44;5075738;28;20347;-53
2021/12/17 05:36:20;;;;;;;60.83;22.43;;;;;;;15.36;100.00;103854.81;5075563;28;20277;-49
2021/12/17 05:39:00;;;;;;;54.77;24.17;;;;;;;15.28;100.00;103852.88;5075221;28;20276;-52
2021/12/17 05:41:26;;;;;;;55.20;23.15;;;;;;;15.18;100.00;103847.56;5059501;28;20284;-50
2021/12/17 05:44:10;;;;;;;58.37;22.70;;;;;;;15.30;100.00;103846.34;5078238;28;20113;-52
2021/12/17 05:46:49;;;;;;;51.45;21.30;;;;;;;15.28;100.00;103852.88;5058906;28;20750;-51
2021/12/17 05:49:20;;;;;;;49.47;20.97;;;;;;;15.25;100.00;103853.19;5075965;28;20063;-51
2021/12/17 05:51:47;;;;;;;51.60;20.93;;;;;;;15.30;100.00;103850.88;5059123;28;20322;-48
2021/12/17 05:54:13;;;;;;;56.38;22.77;;;;;;;15.25;100.00;103854.06;5093614;28;20274;-53
2021/12/17 05:56:40;;;;;;;54.08;22.35;;;;;;;15.27;100.00;103857.44;5075835;28;20032;-53
2021/12/17 05:59:06;;;;;;;56.13;21.83;;;;;;;15.27;100.00;103857.44;5075138;28;20021;-51
2021/12/17 06:01:32;;;;;;;59.85;22.20;;;;;;;15.27;100.00;103862.84;5074826;28;20269;-49
2021/12/17 06:03:58;;;;;;;;;;;;;;;15.32;100.00;103855.13;5059846;28;20063;-52
2021/12/17 06:06:36;;;;;;;57.77;21.13;;;;;;;15.18;100.00;103858.34;5075384;28;20360;-48
2021/12/17 06:09:06;;;;;;;56.60;21.20;;;;;;;15.30;100.00;103864.38;5075307;28;20659;-50
2021/12/17 06:11:35;;;;;;;63.10;22.87;;;;;;;15.23;100.00;103874.94;5075993;28;20275;-49
2021/12/17 06:14:01;;;;;;;59.77;23.17;;;;;;;15.26;100.00;103869.22;5074817;28;20264;-52
2021/12/17 06:16:33;;;;;;;61.83;21.53;;;;;;;15.28;100.00;103869.94;5075298;28;20269;-49
2021/12/17 06:19:04;;;;;;;64.77;22.73;;;;;;;15.19;100.00;103866.28;5059525;28;20291;-50
2021/12/17 06:21:29;;;;;;;;;;;;;;;15.10;100.00;103877.13;5042327;28;20273;-52
2021/12/17 06:23:56;;;;;;;50.33;19.73;;;;;;;15.29;100.00;103874.31;5075027;28;19908;-52
2021/12/17 06:26:22;;;;;;;54.92;21.50;;;;;;;15.30;100.00;103884.09;5058375;28;20280;-50
2021/12/17 06:28:50;;;;;;;52.45;20.63;;;;;;;15.25;100.00;103881.03;5075659;28;20069;-52
2021/12/17 06:31:19;;;;;;;47.70;17.73;;;;;;;15.34;100.00;103890.88;5058679;28;20032;-51
2021/12/17 06:33:45;;;;;;;48.23;18.73;;;;;;;15.19;100.00;103887.00;5075488;28;20261;-51
2021/12/17 06:36:10;;;;;;;42.72;17.35;;;;;;;15.15;100.00;103885.59;5059142;28;20264;-54
2021/12/17 06:38:36;;;;;;;59.70;17.85;;;;;;;15.31;100.00;103888.50;5074668;28;20044;-54
2021/12/17 06:41:02;;;;;;;44.58;17.80;;;;;;;15.34;100.00;103890.88;5075185;28;20476;-54
2021/12/17 06:43:37;;;;;;;43.00;17.70;;;;;;;15.32;100.00;103887.47;5074511;28;20216;-53
2021/12/17 06:46:31;;;;;;;49.77;19.73;;;;;;;15.39;100.00;103876.09;5075622;28;20295;-52
2021/12/17 06:48:55;;;;;;;44.77;18.10;;;;;;;15.34;100.00;103893.56;5078127;28;20640;-49
2021/12/17 07:28:13;;;;;;;42.50;17.50;;;;;;;15.28;100.00;103869.94;5077353;28;20280;-50
2021/12/17 07:33:40;;;;;;;42.90;16.75;;;;;;;15.28;100.00;103863.66;5095316;28;20315;-48
2021/12/17 07:39:33;;;;;;;50.60;17.77;;;;;;;15.22;100.00;103850.81;5044764;28;20424;-47
2021/12/17 07:42:10;;;;;;;;;;;;;;;15.14;100.00;103862.34;5078312;28;20303;-48
2021/12/17 07:44:47;;;;;;;45.60;17.03;;;;;;;15.25;100.00;103875.63;5077515;28;19916;-49
2021/12/17 07:47:36;;;;;;;44.87;17.57;;;;;;;15.25;100.00;103875.63;5086449;28;20750;-49
2021/12/17 07:50:20;;;;;;;49.67;18.53;;;;;;;15.27;100.00;103868.22;5095715;28;20272;-50
2021/12/17 07:53:03;;;;;;;59.03;23.70;;;;;;;15.28;100.00;103869.94;5077623;28;20280;-48
2021/12/17 07:55:33;;;;;;;53.70;19.90;;;;;;;15.32;100.00;103886.63;5094883;28;20288;-48
2021/12/17 07:58:02;;;;;;;48.27;20.97;;;;;;;15.28;100.00;103902.28;5076828;28;20300;-51
2021/12/17 08:00:35;;;;;;;55.60;19.23;;;;;;;15.31;100.00;103907.38;5077797;28;20322;-52
2021/12/17 08:03:02;;;;;;;51.67;20.40;;;;;;;15.25;100.00;103891.81;5076746;28;20281;-54
2021/12/17 08:05:45;;;;;;;51.40;20.90;;;;;;;15.22;100.00;103892.06;5077508;28;20039;-55
2021/12/17 08:08:12;;;;;;;58.08;20.90;;;;;;;15.28;100.00;103896.88;5076282;28;20291;-50
2021/12/17 08:10:38;;;;;;;51.13;21.40;;;;;;;15.29;100.00;103903.13;5060670;28;20031;-52
2021/12/17 08:13:07;;;;;;;55.47;20.17;;;;;;;15.18;100.00;103896.94;5077287;28;20269;-51
2021/12/17 08:15:39;;;;;;;51.27;18.40;;;;;;;15.25;100.00;103901.72;5076856;28;20063;-49
2021/12/17 08:24:00;;;;;;;47.40;17.20;;;;;;;15.24;100.00;103894.63;5076754;28;20398;-56
2021/12/17 08:26:40;;;;;;;47.30;18.17;;;;;;;15.25;100.00;103891.81;5075874;28;20757;-51
2021/12/17 08:29:12;;;;;;;41.17;16.80;;;;;;;15.26;100.00;103903.41;5075570;28;20265;-53
2021/12/17 08:31:37;;;;;;;40.67;16.33;;;;;;;15.22;100.00;103902.88;5075935;28;20325;-48
2021/12/17 08:34:05;;;;;;;49.30;18.60;;;;;;;15.28;100.00;103899.59;5076271;28;20252;-49
2021/12/17 08:36:32;;;;;;;47.33;17.17;;;;;;;15.28;100.00;103907.66;5075982;28;20130;-50
2021/12/17 08:39:00;;;;;;;48.07;17.77;;;;;;;15.31;100.00;103909.19;5076160;28;20272;-53
2021/12/17 08:41:39;;;;;;;48.05;17.08;;;;;;;15.30;100.00;103911.06;5076323;28;20281;-53
2021/12/17 08:44:06;;;;;;;44.03;16.33;;;;;;;15.25;100.00;103910.69;5076018;28;20089;-51
2021/12/17 08:46:36;;;;;;;42.67;17.40;;;;;;;15.25;100.00;103913.38;5060411;28;20315;-49
2021/12/17 08:49:10;;;;;;;44.00;17.40;;;;;;;15.25;100.00;103902.59;5076296;28;20770;-51
2021/12/17 08:51:55;;;;;;;48.10;17.63;;;;;;;15.29;100.00;103901.28;5079617;28;20313;-52
2021/12/17 08:54:21;;;;;;;38.13;15.73;;;;;;;15.33;100.00;103909.88;5075656;28;20268;-52
2021/12/17 08:56:49;;;;;;;48.83;15.10;;;;;;;15.33;100.00;103901.81;5059355;28;20032;-52
2021/12/17 08:59:18;;;;;;;43.40;16.37;;;;;;;15.35;100.00;103907.91;5075985;28;20105;-52
2021/12/17 09:02:06;;;;;;;43.33;16.13;;;;;;;15.40;100.00;103912.84;5093765;28;20253;-48
2021/12/17 09:04:34;;;;;;;43.83;15.63;;;;;;;15.48;100.00;103918.34;5076122;28;20287;-51
2021/12/17 09:07:06;;;;;;;42.93;16.27;;;;;;;15.51;100.00;103915.31;5076114;28;20318;-52
2021/12/17 09:09:32;;;;;;;38.70;14.97;;;;;;;15.43;100.00;103921.47;5075208;28;20776;-53
2021/12/17 09:12:09;;;;;;;34.47;14.43;;;;;;;15.41;100.00;103917.22;5076341;28;20265;-49
2021/12/17 09:14:37;;;;;;;34.43;13.77;;;;;;;15.38;100.00;103917.53;5076847;28;20440;-49
2021/12/17 09:17:24;;;;;;;40.10;15.53;;;;;;;15.45;100.00;103913.22;5093656;28;20256;-56
2021/12/17 09:19:51;;;;;;;34.03;12.67;;;;;;;15.38;100.00;103926.47;5075576;28;20273;-53
2021/12/17 09:22:21;;;;;;;34.80;13.00;;;;;;;15.39;100.00;103924.63;5076065;28;20268;-52
2021/12/17 09:24:50;;;;;;;39.60;12.70;;;;;;;15.51;100.00;103928.81;5075949;28;20303;-54
2021/12/17 09:27:15;;;;;;;32.63;12.07;;;;;;;15.45;100.00;103930.25;5093642;28;20288;-51
2021/12/17 09:29:59;;;;;;;36.83;13.73;;;;;;;15.55;100.00;103927.50;5093876;28;20051;-50
2021/12/17 09:32:25;;;;;;;38.07;15.37;;;;;;;15.37;100.00;103927.47;5075096;28;20630;-53
2021/12/17 09:34:51;;;;;;;36.67;15.30;;;;;;;15.38;100.00;103931.88;5093743;28;20335;-49
2021/12/17 09:37:17;;;;;;;33.72;12.15;;;;;;;15.36;100.00;103933.00;5092849;28;20032;-50
2021/12/17 09:39:45;;;;;;;31.67;13.07;;;;;;;15.38;100.00;103931.88;5093379;28;20378;-50
2021/12/17 09:42:11;;;;;;;27.40;11.38;;;;;;;15.47;100.00;103933.66;5093449;28;20284;-48
2021/12/17 09:44:36;;;;;;;28.23;12.10;;;;;;;15.36;100.00;103933.88;5093021;28;20036;-49
2021/12/17 09:47:03;;;;;;;35.78;12.55;;;;;;;15.27;100.00;103930.25;5093857;28;20046;-49
2021/12/17 09:49:28;;;;;;;27.42;11.77;;;;;;;15.48;100.00;103939.91;5074951;28;20391;-51
2021/12/17 09:51:56;;;;;;;29.63;11.73;;;;;;;15.56;100.00;103941.81;5075268;28;20036;-49
2021/12/17 09:54:22;;;;;;;34.00;13.00;;;;;;;15.56;100.00;103949.91;5075178;28;20035;-53
2021/12/17 09:56:47;;;;;;;33.72;13.70;;;;;;;15.61;100.00;103945.75;5092850;28;20272;-53
2021/12/17 09:59:14;;;;;;;31.80;11.63;;;;;;;15.65;100.00;103964.31;5093086;28;20036;-53
2021/12/17 10:01:42;;;;;;;28.37;11.27;;;;;;;15.68;100.00;103961.31;5093176;28;20276;-52
2021/12/17 10:04:20;;;;;;;25.70;11.10;;;;;;;15.72;100.00;103970.84;5092803;28;20276;-53
2021/12/17 10:06:48;;;;;;;23.37;10.13;;;;;;;15.70;100.00;103976.38;5093472;28;20252;-53
2021/12/17 10:09:15;;;;;;;22.80;10.33;;;;;;;15.75;100.00;103978.63;5092653;28;20252;-52
2021/12/17 10:12:02;;;;;;;23.87;9.50;;;;;;;15.66;100.00;103985.78;5092762;28;20314;-50
2021/12/17 10:14:28;;;;;;;24.85;9.73;;;;;;;15.76;100.00;103980.31;5093073;28;20287;-50
2021/12/17 10:17:09;;;;;;;25.33;10.25;;;;;;;15.89;100.00;103980.78;5092815;28;20024;-49
2021/12/17 10:19:47;;;;;;;22.93;9.13;;;;;;;15.96;100.00;103974.78;5092203;28;20062;-56
2021/12/17 10:22:15;;;;;;;19.17;8.17;;;;;;;15.87;100.00;103977.38;5096097;28;20292;-55
2021/12/17 10:25:05;;;;;;;18.90;8.40;;;;;;;15.78;100.00;103979.13;5096788;28;20250;-51
2021/12/17 10:27:34;;;;;;;20.67;8.67;;;;;;;15.81;100.00;103974.47;5096701;28;20355;-53
2021/12/17 10:30:27;;;;;;;17.90;7.47;;;;;;;15.93;100.00;103973.25;5096183;28;20725;-51
2021/12/17 10:32:55;;;;;;;19.80;8.67;;;;;;;15.90;100.00;103981.66;5096164;28;20675;-48
2021/12/17 10:35:30;;;;;;;21.90;8.77;;;;;;;15.78;100.00;103979.13;5096340;28;20763;-50
2021/12/17 10:38:00;;;;;;;23.97;7.83;;;;;;;15.90;100.00;103974.38;5079035;28;20761;-48
2021/12/17 10:40:48;;;;;;;20.57;7.73;;;;;;;15.86;100.00;103974.84;5096843;28;20257;-51
2021/12/17 10:46:09;;;;;;;18.33;7.63;;;;;;;15.81;100.00;103979.84;5096274;28;20261;-53
2021/12/17 10:51:15;;;;;;;16.47;8.20;;;;;;;15.90;100.00;103971.69;5096260;28;20333;-49
2021/12/17 10:53:54;;;;;;;17.87;8.63;;;;;;;15.83;100.00;103975.97;5096405;28;20636;-51
2021/12/17 10:56:24;;;;;;;19.13;8.17;;;;;;;15.90;100.00;103970.84;5096093;28;20288;-51
2021/12/17 10:59:11;;;;;;;17.63;6.83;;;;;;;15.82;100.00;103970.75;5095878;28;20284;-53
2021/12/17 11:01:48;;;;;;;19.93;7.33;;;;;;;15.82;100.00;103968.88;5078912;28;20365;-51
2021/12/17 11:04:31;;;;;;;19.90;7.23;;;;;;;15.65;100.00;103972.41;5077465;28;20268;-49
2021/12/17 11:07:00;;;;;;;16.07;6.43;;;;;;;15.71;100.00;103971.84;5096224;28;20281;-51
2021/12/17 11:09:38;;;;;;;17.03;7.20;;;;;;;15.79;100.00;103974.59;5096166;28;20272;-49
2021/12/17 11:12:30;;;;;;;20.83;8.70;;;;;;;15.75;100.00;103974.03;5096129;28;20256;-53
2021/12/17 11:15:06;;;;;;;23.13;8.70;;;;;;;15.66;100.00;103966.88;5095402;28;20605;-54
2021/12/17 11:17:32;;;;;;;21.02;9.50;;;;;;;15.82;100.00;103960.78;5094942;28;20296;-55
2021/12/17 11:19:59;;;;;;;21.40;8.45;;;;;;;15.81;100.00;103961.81;5095752;28;20064;-52
2021/12/17 11:22:26;;;;;;;24.53;9.17;;;;;;;15.74;100.00;103966.13;5095536;28;20036;-52
2021/12/17 11:24:52;;;;;;;19.50;8.67;;;;;;;15.76;100.00;103975.75;5095332;28;20371;-53
2021/12/17 11:27:18;;;;;;;18.52;7.28;;;;;;;15.69;100.00;103957.66;5078009;28;20287;-53
2021/12/17 11:29:44;;;;;;;17.05;8.02;;;;;;;15.74;100.00;103966.13;5077182;28;20050;-55
2021/12/17 11:32:09;;;;;;;18.02;7.38;;;;;;;15.70;100.00;103951.25;5094864;28;20427;-51
2021/12/17 11:34:35;;;;;;;20.13;7.78;;;;;;;15.59;100.00;103955.84;5076936;28;20118;-53
2021/12/17 11:37:06;;;;;;;17.58;6.97;;;;;;;15.48;100.00;103962.31;5077524;28;20043;-51
2021/12/17 11:39:36;;;;;;;16.87;7.67;;;;;;;15.60;100.00;103970.22;5095391;28;20454;-49
2021/12/17 11:42:04;;;;;;;17.87;7.03;;;;;;;15.56;100.00;103969.66;5074034;28;20277;-49
2021/12/17 11:44:40;;;;;;;15.57;6.73;;;;;;;15.57;100.00;103965.94;5074990;28;20821;-47
2021/12/17 11:47:10;;;;;;;17.48;7.05;;;;;;;15.68;100.00;103964.03;5057170;28;20281;-49
2021/12/17 11:49:51;;;;;;;17.37;7.53;;;;;;;15.72;100.00;103958.16;5075416;28;20107;-52
2021/12/17 11:52:39;;;;;;;14.57;6.53;;;;;;;15.75;100.00;103965.13;5076365;28;20284;-49
2021/12/17 11:55:25;;;;;;;12.23;5.40;;;;;;;15.67;100.00;103962.31;5073877;28;20269;-47
2021/12/17 11:57:55;;;;;;;14.10;5.77;;;;;;;15.57;100.00;103957.00;5074474;28;20815;-48
2021/12/17 12:00:31;;;;;;;10.70;6.47;;;;;;;15.34;100.00;103949.38;5074087;28;20407;-50
2021/12/17 12:03:23;;;;;;;13.70;6.20;;;;;;;15.52;100.00;103957.47;5073141;28;20254;-49
2021/12/17 12:05:51;;;;;;;10.00;5.23;;;;;;;15.57;100.00;103955.16;5074467;28;20055;-50
2021/12/17 12:08:39;;;;;;;12.10;5.90;;;;;;;15.55;100.00;103956.31;5074467;28;20249;-50
2021/12/17 12:11:27;;;;;;;11.60;5.13;;;;;;;15.55;100.00;103957.16;5074602;28;20264;-51
2021/12/17 12:13:54;;;;;;;13.20;4.90;;;;;;;15.61;100.00;103956.53;5074614;28;20032;-50
2021/12/17 12:16:30;;;;;;;12.47;5.97;;;;;;;15.66;100.00;103960.63;5074613;28;20272;-53
2021/12/17 12:19:04;;;;;;;12.83;5.63;;;;;;;15.78;100.00;103951.31;5073289;28;20312;-55
2021/12/17 12:21:36;;;;;;;10.77;5.67;;;;;;;15.83;100.00;103949.00;5074300;28;20272;-53
2021/12/17 12:24:16;;;;;;;9.67;5.77;;;;;;;15.84;100.00;103955.25;5074685;28;20289;-50
2021/12/17 12:26:48;;;;;;;10.47;5.50;;;;;;;15.72;100.00;103951.94;5073990;28;20335;-51
2021/12/17 12:29:28;;;;;;;14.27;6.50;;;;;;;15.79;100.00;103958.41;5073766;28;20280;-53
2021/12/17 12:31:58;;;;;;;13.53;6.73;;;;;;;15.65;100.00;103949.00;5056696;28;20315;-51
2021/12/17 12:34:36;;;;;;;16.67;8.67;;;;;;;15.58;100.00;103956.03;5074487;28;20265;-52
2021/12/17 12:37:07;;;;;;;13.03;6.30;;;;;;;15.59;100.00;103955.84;5074472;28;20321;-49
2021/12/17 12:40:08;;;;;;;11.10;5.97;;;;;;;15.60;100.00;103959.41;5073934;28;20342;-50
2021/12/17 12:42:36;;;;;;;11.30;5.67;;;;;;;15.62;100.00;103949.31;5058254;28;20288;-54
2021/12/17 12:45:06;;;;;;;10.47;5.43;;;;;;;15.71;100.00;103952.94;5071447;28;20285;-51
2021/12/17 12:47:51;;;;;;;10.80;5.57;;;;;;;15.72;100.00;103949.25;5072316;28;20280;-51
2021/12/17 12:50:24;;;;;;;10.60;5.63;;;;;;;15.63;100.00;103951.84;5073911;28;20268;-51
2021/12/17 12:53:05;;;;;;;10.43;4.67;;;;;;;15.71;100.00;103947.56;5073520;28;20276;-50
2021/12/17 12:55:34;;;;;;;11.10;5.23;;;;;;;15.63;100.00;103946.44;5073778;28;20269;-52
2021/12/17 12:58:02;;;;;;;8.63;4.73;;;;;;;15.63;100.00;103941.06;5073432;28;20790;-50
2021/12/17 13:00:34;;;;;;;9.80;4.93;;;;;;;15.61;100.00;103944.94;5072462;28;20300;-54
2021/12/17 13:03:28;;;;;;;8.93;4.70;;;;;;;15.48;100.00;103942.59;5073924;28;20344;-51
2021/12/17 13:05:56;;;;;;;10.13;4.73;;;;;;;15.56;100.00;103931.03;5072154;28;20368;-48
2021/12/17 13:08:22;;;;;;;7.13;4.40;;;;;;;15.55;100.00;103924.78;5073673;28;20299;-53
2021/12/17 13:10:54;;;;;;;;;;;;;;;15.57;100.00;103935.41;5073749;28;20308;-52
2021/12/17 13:13:50;;;;;;;6.17;3.63;;;;;;;15.55;100.00;103930.19;5073205;28;19912;-49
2021/12/17 13:16:19;;;;;;;6.63;3.00;;;;;;;15.43;100.00;103931.41;5073478;28;20277;-52
2021/12/17 13:21:41;;;;;;;4.70;3.00;;;;;;;15.45;100.00;103941.03;5073876;28;20036;-50
2021/12/17 13:24:14;;;;;;;4.63;3.00;;;;;;;15.42;100.00;103935.09;5073458;28;20253;-54
2021/12/17 13:26:54;;;;;;;22.20;8.83;;;;;;;15.32;100.00;103933.31;5073192;28;20277;-54
2021/12/17 13:29:33;;;;;;;6.53;4.40;;;;;;;15.50;100.00;103927.13;5071897;28;20273;-52
2021/12/17 13:32:11;;;;;;;8.40;4.00;;;;;;;15.48;100.00;103937.22;5073361;28;20713;-53
2021/12/17 13:34:56;;;;;;;6.23;3.47;;;;;;;15.45;100.00;103930.25;5071625;28;20257;-52
2021/12/17 13:37:34;;;;;;;7.50;4.30;;;;;;;15.61;100.00;103934.97;5073219;28;20261;-51
2021/12/17 13:40:07;;;;;;;10.03;4.00;;;;;;;15.67;100.00;103929.94;5072946;28;20254;-50
2021/12/17 13:42:39;;;;;;;7.17;4.53;;;;;;;15.70;100.00;103925.09;5071603;28;20280;-52
2021/12/17 13:45:20;;;;;;;9.50;4.20;;;;;;;15.57;100.00;103922.78;5054696;28;20269;-48
2021/12/17 13:47:53;;;;;;;10.43;4.23;;;;;;;15.65;100.00;103929.25;5072900;28;20284;-52
2021/12/17 13:50:30;;;;;;;10.97;5.90;;;;;;;15.57;100.00;103927.31;5072392;28;20373;-53
2021/12/17 13:53:00;;;;;;;7.00;4.28;;;;;;;15.65;100.00;103929.25;5073530;28;20594;-52
2021/12/17 13:55:33;;;;;;;5.43;3.77;;;;;;;15.57;100.00;103928.19;5072811;28;20032;-48
2021/12/17 13:58:02;;;;;;;7.67;4.07;;;;;;;15.76;100.00;103918.25;5076875;28;20277;-53
2021/12/17 14:00:36;;;;;;;7.23;3.63;;;;;;;15.66;100.00;103925.56;5077320;28;20260;-50
2021/12/17 14:03:02;;;;;;;7.23;3.87;;;;;;;15.81;100.00;103921.31;5075846;28;20257;-52
2021/12/17 14:05:40;;;;;;;;;;;;;;;15.93;100.00;103926.53;5077360;28;20249;-52
2021/12/17 14:08:09;;;;;;;8.98;4.55;;;;;;;16.02;100.00;103922.88;5076936;28;20303;-49
2021/12/17 14:10:36;;;;;;;8.93;4.97;;;;;;;16.08;100.00;103927.66;5076942;28;20035;-52
2021/12/17 14:13:04;;;;;;;8.87;4.40;;;;;;;16.01;100.00;103921.19;5076656;28;20261;-53
2021/12/17 14:15:33;;;;;;;9.77;5.17;;;;;;;16.09;100.00;103921.25;5076407;28;20703;-48
2021/12/17 14:18:07;;;;;;;7.90;4.40;;;;;;;16.12;100.00;103926.31;5075420;28;20288;-53
2021/12/17 14:20:48;;;;;;;9.53;4.17;;;;;;;16.17;100.00;103921.31;5076187;28;20284;-53
2021/12/17 14:23:18;;;;;;;8.90;4.67;;;;;;;16.02;100.00;103922.88;5075250;28;20265;-50
2021/12/17 14:25:47;;;;;;;8.10;4.53;;;;;;;16.04;100.00;103915.47;5076418;28;20668;-52